Vistas del Oceano, Puerto Rico
Current Conditions -  °F | °C
As of 11:53 PM on Thursday 25 Dec 2014 (Local Time) from TJNR Reporting Station
Scattered Clouds Scattered Clouds  
Wind Chill: 78°   Ceiling: Unl
Heat Index: 80°   Visibility: 10mi
Dew Point: 69°   Wind: 10mph
Humidity: 74%   Direction: 60°ENE
Pressure: 30.08"   Gusts: 20mph
Location:  18.2022°N, 65.86°W
Report Text: TJNR 260353Z AUTO 06009G17KT 10SM FEW030 SCT050 26/21 A3008 RMK AO2 RAB25E35 SLP186 P0000 T02560206 402890239 $
Loading
Personal Weather Stations






























Interactive Weather Map New forecast layout! Learn more

10-Day Weather Forecast

Advertisements
Track Severe Weather on mobile